Platitera Tonouranon — SX7180 — position and weather

sailwx.info

Track history (hours):
 
Tides and Currents Weather Stations Pressure Air Temp Water Temp Dewpoint Dewpoint Depression Visibility Wind Speed Wind Dir Waves Ship Positions

Platitera Tonouranon

Last reported at 2016-May-26 12:33 UTC. Time now 2016-May-26 12:35 UTC.
Position N 37°36' E 023°25'.

Length 55 m; draft 3.8 m.

Type: Ship (hazmat cat A). MMSI: 237038200.

Date/timePositionNaut miles runAvg speedWind from/ knotsBaromVisibWave heightAir tempDewpointWater temp
2016-May-26 12:33N 37°36' E 023°25'6 6.3
2016-May-26 11:33N 37°30' E 023°27'6 5.9
2016-May-26 10:33N 37°25' E 023°32'5 4.7
2016-May-26 09:30N 37°21' E 023°28'2 2.1
2016-May-26 08:32N 37°23' E 023°29'1111.3
2016-May-26 07:33N 37°34' E 023°32'1211.7
2016-May-26 06:33N 37°45' E 023°34'1010.0
2016-May-26 05:33N 37°54' E 023°39'2 2.3
2016-May-26 04:33N 37°56' E 023°41'0 0.0
2016-May-26 03:33N 37°56' E 023°41'0 0.0
2016-May-26 01:10N 37°56' E 023°41'0 0.0
2016-May-26 00:33N 37°56' E 023°41'0 0.0
2016-May-25 23:34N 37°56' E 023°41'0 0.0
2016-May-25 22:33N 37°56' E 023°41'0 0.0
2016-May-25 21:33N 37°56' E 023°41'0 0.0
2016-May-25 20:33N 37°56' E 023°41'0 0.0
2016-May-25 19:33N 37°56' E 023°41'0 0.0
2016-May-25 18:33N 37°56' E 023°41'0 0.0
2016-May-25 17:33N 37°56' E 023°41'9 9.2
2016-May-25 16:33N 37°50' E 023°32'9 3.0
2016-May-25 13:33N 37°43' E 023°25'1211.6
2016-May-25 12:33N 37°31' E 023°25'2 2.4
2016-May-25 11:33N 37°30' E 023°28'9 8.5
2016-May-25 10:32N 37°21' E 023°28'0 0.1
2016-May-25 09:33N 37°21' E 023°28'6 5.5
2016-May-25 08:26N 37°26' E 023°32'1011.7
2016-May-25 07:33N 37°37' E 023°30'1111.3
2016-May-25 06:33N 37°47' E 023°34'1010.3
2016-May-25 05:33N 37°56' E 023°41'0 0.3
2016-May-25 04:34N 37°56' E 023°41'0 0.0
2016-May-25 03:34N 37°56' E 023°41'0 0.0
2016-May-24 21:15N 37°56' E 023°41'0 0.0
2016-May-24 20:33N 37°56' E 023°41'0 0.0
2016-May-24 19:33N 37°56' E 023°41'0 0.0
2016-May-24 18:12N 37°56' E 023°41'0 0.0
2016-May-24 17:33N 37°56' E 023°41'3 2.8
2016-May-24 16:33N 37°55' E 023°38'1211.8
2016-May-24 15:33N 37°47' E 023°27'3 1.2
2016-May-24 13:26N 37°45' E 023°26'8 9.5
2016-May-24 12:33N 37°36' E 023°25'7 6.7
2016-May-24 11:33N 37°30' E 023°27'6 6.4
2016-May-24 10:33N 37°24' E 023°31'4 3.9
2016-May-24 09:33N 37°21' E 023°28'0 0.0
2016-May-24 08:33N 37°21' E 023°28'9 9.0
2016-May-24 07:33N 37°30' E 023°31'1211.9
2016-May-24 06:33N 37°42' E 023°33'1211.7
2016-May-24 05:33N 37°52' E 023°38'4 4.3
2016-May-24 04:32N 37°56' E 023°41'0 0.0
2016-May-24 03:33N 37°56' E 023°41'0 0.0
2016-May-23 21:10N 37°56' E 023°41'0 0.0
2016-May-23 20:33N 37°56' E 023°41'0 0.0
2016-May-23 19:33N 37°56' E 023°41'0 0.0
2016-May-23 17:30N 37°56' E 023°41'2 2.2
2016-May-23 16:33N 37°55' E 023°39'1211.8
2016-May-23 15:33N 37°48' E 023°27'3 1.5
2016-May-23 13:29N 37°45' E 023°26'8 8.3
2016-May-23 12:33N 37°37' E 023°25'7 7.1
2016-May-23 11:33N 37°30' E 023°27'6 5.8
2016-May-23 10:33N 37°26' E 023°32'6 5.8
2016-May-23 09:33N 37°21' E 023°28'0 0.0
2016-May-23 08:33N 37°21' E 023°28'1110.9
2016-May-23 07:33N 37°31' E 023°32'1211.5
2016-May-23 06:33N 37°43' E 023°33'1111.1
2016-May-23 05:33N 37°53' E 023°39'4 3.6
2016-May-23 04:33N 37°56' E 023°41'0 0.0
2016-May-23 03:33N 37°56' E 023°41'0 0.0
2016-May-22 20:34N 37°56' E 023°41'0 0.0
2016-May-22 19:34N 37°56' E 023°41'0 0.0
2016-May-22 17:33N 37°56' E 023°41'4 3.6
2016-May-22 16:33N 37°54' E 023°37'1111.3
2016-May-22 15:33N 37°47' E 023°26'2 1.1
2016-May-22 13:18N 37°45' E 023°25'810.9
2016-May-22 12:33N 37°37' E 023°26'7 6.7
2016-May-22 11:33N 37°30' E 023°27'5 5.2
2016-May-22 10:33N 37°27' E 023°32'6 6.2
2016-May-22 09:32N 37°21' E 023°28'0 0.0
2016-May-22 08:33N 37°21' E 023°28'10 9.7
2016-May-22 07:32N 37°30' E 023°33'1211.9
2016-May-22 06:33N 37°42' E 023°34'1211.8
2016-May-22 05:33N 37°53' E 023°39'4 3.7
2016-May-22 04:33N 37°56' E 023°41'0 0.0
2016-May-22 03:33N 37°56' E 023°41'0 0.0
2016-May-21 20:32N 37°56' E 023°41'0 0.0
2016-May-21 19:33N 37°56' E 023°41'0 0.0
2016-May-21 17:34N 37°56' E 023°41'5 5.3
2016-May-21 16:33N 37°52' E 023°37'1010.1
2016-May-21 15:33N 37°47' E 023°26'2 0.9
2016-May-21 13:24N 37°45' E 023°26'910.8
2016-May-21 12:33N 37°36' E 023°28'1411.0
2016-May-21 11:18N 37°23' E 023°33'4 5.4
2016-May-21 10:33N 37°21' E 023°28'0 0.0
2016-May-21 09:32N 37°21' E 023°28'7 7.5
2016-May-21 08:33N 37°28' E 023°31'9 8.5
2016-May-21 07:32N 37°36' E 023°26'9 9.3
2016-May-21 06:33N 37°43' E 023°33'1111.6
2016-May-21 05:33N 37°54' E 023°39'3 3.1
2016-May-21 04:33N 37°56' E 023°41'0 0.0
2016-May-21 03:33N 37°56' E 023°41'0 0.0
2016-May-20 20:19N 37°56' E 023°41'0 0.0
2016-May-20 17:32N 37°56' E 023°41'3 2.6
2016-May-20 16:33N 37°54' E 023°39'1211.6
2016-May-20 15:33N 37°47' E 023°27'3 2.1
2016-May-20 14:17N 37°45' E 023°26'0 0.0
2016-May-20 13:22N 37°45' E 023°26'810.2
2016-May-20 12:33N 37°36' E 023°25'6 6.3
2016-May-20 11:33N 37°30' E 023°27'5 4.8
2016-May-20 10:33N 37°27' E 023°32'7 6.5
2016-May-20 09:33N 37°21' E 023°28'0 0.0
2016-May-20 08:32N 37°21' E 023°28'1010.3
2016-May-20 07:33N 37°31' E 023°33'1211.7
2016-May-20 06:33N 37°42' E 023°33'1211.7
2016-May-20 05:33N 37°53' E 023°39'3 3.5
2016-May-20 04:33N 37°56' E 023°41'0 0.0
2016-May-20 03:33N 37°56' E 023°41'0 0.0
2016-May-19 21:08N 37°56' E 023°41'0 0.0
2016-May-19 20:33N 37°56' E 023°41'0 0.0
2016-May-19 17:33N 37°56' E 023°41'2 1.6
2016-May-19 16:33N 37°55' E 023°39'1211.9
2016-May-19 15:33N 37°48' E 023°28'4 1.6
2016-May-19 13:19N 37°45' E 023°26'811.0
2016-May-19 12:33N 37°36' E 023°25'7 6.5
2016-May-19 11:33N 37°30' E 023°27'6 5.6
2016-May-19 10:33N 37°26' E 023°32'6 6.0
2016-May-19 09:33N 37°21' E 023°28'1 0.8
2016-May-19 08:31N 37°22' E 023°28'1111.1
2016-May-19 07:33N 37°32' E 023°32'1211.8
2016-May-19 06:33N 37°44' E 023°34'1211.7
2016-May-19 05:33N 37°55' E 023°40'2 1.9
2016-May-19 04:33N 37°56' E 023°41'0 0.0
2016-May-19 03:33N 37°56' E 023°41'0 0.0
2016-May-18 20:18N 37°56' E 023°41'0 0.0
2016-May-18 19:33N 37°56' E 023°41'0 0.0
2016-May-18 17:33N 37°56' E 023°41'4 3.5
2016-May-18 16:33N 37°53' E 023°38'1111.4
2016-May-18 15:33N 37°47' E 023°27'2 0.9
2016-May-18 13:18N 37°45' E 023°26'911.3
2016-May-18 12:32N 37°36' E 023°26'6 6.4
2016-May-18 11:33N 37°30' E 023°27'6 5.7
2016-May-18 10:32N 37°25' E 023°32'5 5.3
2016-May-18 09:33N 37°21' E 023°28'2 1.6
2016-May-18 08:30N 37°23' E 023°29'1111.4
2016-May-18 07:31N 37°33' E 023°33'1211.9
2016-May-18 06:33N 37°45' E 023°34'1211.6
2016-May-18 05:33N 37°55' E 023°40'1 1.1
2016-May-18 04:33N 37°56' E 023°41'0 0.0
2016-May-18 03:33N 37°56' E 023°41'0 0.0
2016-May-17 20:33N 37°56' E 023°41'0 0.0
2016-May-17 19:33N 37°56' E 023°41'0 0.0
2016-May-17 18:33N 37°56' E 023°41'0 0.0
2016-May-17 17:33N 37°56' E 023°41'2 1.7
2016-May-17 16:33N 37°55' E 023°39'1211.9
2016-May-17 15:33N 37°48' E 023°28'3 2.8
2016-May-17 14:21N 37°45' E 023°26'0 0.0
2016-May-17 13:18N 37°45' E 023°26'811.0
2016-May-17 12:32N 37°36' E 023°25'7 6.7
2016-May-17 11:33N 37°30' E 023°27'6 5.2
2016-May-17 10:22N 37°25' E 023°31'4 5.2
2016-May-17 09:32N 37°21' E 023°28'0 0.0
2016-May-17 08:33N 37°21' E 023°28'1110.9
2016-May-17 07:34N 37°31' E 023°32'1211.8
2016-May-17 06:33N 37°43' E 023°33'1111.4
2016-May-17 05:33N 37°54' E 023°39'3 3.1
2016-May-17 04:33N 37°56' E 023°41'0 0.0
2016-May-17 03:33N 37°56' E 023°41'0 0.0
2016-May-16 19:34N 37°56' E 023°41'0 0.0
2016-May-16 18:33N 37°56' E 023°41'0 0.0
2016-May-16 17:34N 37°56' E 023°41'2 1.5
2016-May-16 16:33N 37°55' E 023°39'1211.8
2016-May-16 15:33N 37°48' E 023°28'4 1.8
2016-May-16 13:27N 37°45' E 023°26'  
Track history (hours):
 
Tides and Currents Weather Stations Pressure Air Temp Water Temp Dewpoint Dewpoint Depression Visibility Wind Speed Wind Dir Waves Ship Positions

Platitera Tonouranon

Last reported at 2016-May-26 12:33 UTC. Time now 2016-May-26 12:35 UTC.
Position N 37°36' E 023°25'.

Length 55 m; draft 3.8 m.

Type: Ship (hazmat cat A). MMSI: 237038200.

Date/timePositionNaut miles runAvg speedWind from/ knotsBaromVisibWave heightAir tempDewpointWater temp
2016-May-26 12:33N 37°36' E 023°25'6 6.3
2016-May-26 11:33N 37°30' E 023°27'6 5.9
2016-May-26 10:33N 37°25' E 023°32'5 4.7
2016-May-26 09:30N 37°21' E 023°28'2 2.1
2016-May-26 08:32N 37°23' E 023°29'1111.3
2016-May-26 07:33N 37°34' E 023°32'1211.7
2016-May-26 06:33N 37°45' E 023°34'1010.0
2016-May-26 05:33N 37°54' E 023°39'2 2.3
2016-May-26 04:33N 37°56' E 023°41'0 0.0
2016-May-26 03:33N 37°56' E 023°41'0 0.0
2016-May-26 01:10N 37°56' E 023°41'0 0.0
2016-May-26 00:33N 37°56' E 023°41'0 0.0
2016-May-25 23:34N 37°56' E 023°41'0 0.0
2016-May-25 22:33N 37°56' E 023°41'0 0.0
2016-May-25 21:33N 37°56' E 023°41'0 0.0
2016-May-25 20:33N 37°56' E 023°41'0 0.0
2016-May-25 19:33N 37°56' E 023°41'0 0.0
2016-May-25 18:33N 37°56' E 023°41'0 0.0
2016-May-25 17:33N 37°56' E 023°41'9 9.2
2016-May-25 16:33N 37°50' E 023°32'9 3.0
2016-May-25 13:33N 37°43' E 023°25'1211.6
2016-May-25 12:33N 37°31' E 023°25'2 2.4
2016-May-25 11:33N 37°30' E 023°28'9 8.5
2016-May-25 10:32N 37°21' E 023°28'0 0.1
2016-May-25 09:33N 37°21' E 023°28'6 5.5
2016-May-25 08:26N 37°26' E 023°32'1011.7
2016-May-25 07:33N 37°37' E 023°30'1111.3
2016-May-25 06:33N 37°47' E 023°34'1010.3
2016-May-25 05:33N 37°56' E 023°41'0 0.3
2016-May-25 04:34N 37°56' E 023°41'0 0.0
2016-May-25 03:34N 37°56' E 023°41'0 0.0
2016-May-24 21:15N 37°56' E 023°41'0 0.0
2016-May-24 20:33N 37°56' E 023°41'0 0.0
2016-May-24 19:33N 37°56' E 023°41'0 0.0
2016-May-24 18:12N 37°56' E 023°41'0 0.0
2016-May-24 17:33N 37°56' E 023°41'3 2.8
2016-May-24 16:33N 37°55' E 023°38'1211.8
2016-May-24 15:33N 37°47' E 023°27'3 1.2
2016-May-24 13:26N 37°45' E 023°26'8 9.5
2016-May-24 12:33N 37°36' E 023°25'7 6.7
2016-May-24 11:33N 37°30' E 023°27'6 6.4
2016-May-24 10:33N 37°24' E 023°31'4 3.9
2016-May-24 09:33N 37°21' E 023°28'0 0.0
2016-May-24 08:33N 37°21' E 023°28'9 9.0
2016-May-24 07:33N 37°30' E 023°31'1211.9
2016-May-24 06:33N 37°42' E 023°33'1211.7
2016-May-24 05:33N 37°52' E 023°38'4 4.3
2016-May-24 04:32N 37°56' E 023°41'0 0.0
2016-May-24 03:33N 37°56' E 023°41'0 0.0
2016-May-23 21:10N 37°56' E 023°41'0 0.0
2016-May-23 20:33N 37°56' E 023°41'0 0.0
2016-May-23 19:33N 37°56' E 023°41'0 0.0
2016-May-23 17:30N 37°56' E 023°41'2 2.2
2016-May-23 16:33N 37°55' E 023°39'1211.8
2016-May-23 15:33N 37°48' E 023°27'3 1.5
2016-May-23 13:29N 37°45' E 023°26'8 8.3
2016-May-23 12:33N 37°37' E 023°25'7 7.1
2016-May-23 11:33N 37°30' E 023°27'6 5.8
2016-May-23 10:33N 37°26' E 023°32'6 5.8
2016-May-23 09:33N 37°21' E 023°28'0 0.0
2016-May-23 08:33N 37°21' E 023°28'1110.9
2016-May-23 07:33N 37°31' E 023°32'1211.5
2016-May-23 06:33N 37°43' E 023°33'1111.1
2016-May-23 05:33N 37°53' E 023°39'4 3.6
2016-May-23 04:33N 37°56' E 023°41'0 0.0
2016-May-23 03:33N 37°56' E 023°41'0 0.0
2016-May-22 20:34N 37°56' E 023°41'0 0.0
2016-May-22 19:34N 37°56' E 023°41'0 0.0
2016-May-22 17:33N 37°56' E 023°41'4 3.6
2016-May-22 16:33N 37°54' E 023°37'1111.3
2016-May-22 15:33N 37°47' E 023°26'2 1.1
2016-May-22 13:18N 37°45' E 023°25'810.9
2016-May-22 12:33N 37°37' E 023°26'7 6.7
2016-May-22 11:33N 37°30' E 023°27'5 5.2
2016-May-22 10:33N 37°27' E 023°32'6 6.2
2016-May-22 09:32N 37°21' E 023°28'0 0.0
2016-May-22 08:33N 37°21' E 023°28'10 9.7
2016-May-22 07:32N 37°30' E 023°33'1211.9
2016-May-22 06:33N 37°42' E 023°34'1211.8
2016-May-22 05:33N 37°53' E 023°39'4 3.7
2016-May-22 04:33N 37°56' E 023°41'0 0.0
2016-May-22 03:33N 37°56' E 023°41'0 0.0
2016-May-21 20:32N 37°56' E 023°41'0 0.0
2016-May-21 19:33N 37°56' E 023°41'0 0.0
2016-May-21 17:34N 37°56' E 023°41'5 5.3
2016-May-21 16:33N 37°52' E 023°37'1010.1
2016-May-21 15:33N 37°47' E 023°26'2 0.9
2016-May-21 13:24N 37°45' E 023°26'910.8
2016-May-21 12:33N 37°36' E 023°28'1411.0
2016-May-21 11:18N 37°23' E 023°33'4 5.4
2016-May-21 10:33N 37°21' E 023°28'0 0.0
2016-May-21 09:32N 37°21' E 023°28'7 7.5
2016-May-21 08:33N 37°28' E 023°31'9 8.5
2016-May-21 07:32N 37°36' E 023°26'9 9.3
2016-May-21 06:33N 37°43' E 023°33'1111.6
2016-May-21 05:33N 37°54' E 023°39'3 3.1
2016-May-21 04:33N 37°56' E 023°41'0 0.0
2016-May-21 03:33N 37°56' E 023°41'0 0.0
2016-May-20 20:19N 37°56' E 023°41'0 0.0
2016-May-20 17:32N 37°56' E 023°41'3 2.6
2016-May-20 16:33N 37°54' E 023°39'1211.6
2016-May-20 15:33N 37°47' E 023°27'3 2.1
2016-May-20 14:17N 37°45' E 023°26'0 0.0
2016-May-20 13:22N 37°45' E 023°26'810.2
2016-May-20 12:33N 37°36' E 023°25'6 6.3
2016-May-20 11:33N 37°30' E 023°27'5 4.8
2016-May-20 10:33N 37°27' E 023°32'7 6.5
2016-May-20 09:33N 37°21' E 023°28'0 0.0
2016-May-20 08:32N 37°21' E 023°28'1010.3
2016-May-20 07:33N 37°31' E 023°33'1211.7
2016-May-20 06:33N 37°42' E 023°33'1211.7
2016-May-20 05:33N 37°53' E 023°39'3 3.5
2016-May-20 04:33N 37°56' E 023°41'0 0.0
2016-May-20 03:33N 37°56' E 023°41'0 0.0
2016-May-19 21:08N 37°56' E 023°41'0 0.0
2016-May-19 20:33N 37°56' E 023°41'0 0.0
2016-May-19 17:33N 37°56' E 023°41'2 1.6
2016-May-19 16:33N 37°55' E 023°39'1211.9
2016-May-19 15:33N 37°48' E 023°28'4 1.6
2016-May-19 13:19N 37°45' E 023°26'811.0
2016-May-19 12:33N 37°36' E 023°25'7 6.5
2016-May-19 11:33N 37°30' E 023°27'6 5.6
2016-May-19 10:33N 37°26' E 023°32'6 6.0
2016-May-19 09:33N 37°21' E 023°28'1 0.8
2016-May-19 08:31N 37°22' E 023°28'1111.1
2016-May-19 07:33N 37°32' E 023°32'1211.8
2016-May-19 06:33N 37°44' E 023°34'1211.7
2016-May-19 05:33N 37°55' E 023°40'2 1.9
2016-May-19 04:33N 37°56' E 023°41'0 0.0
2016-May-19 03:33N 37°56' E 023°41'0 0.0
2016-May-18 20:18N 37°56' E 023°41'0 0.0
2016-May-18 19:33N 37°56' E 023°41'0 0.0
2016-May-18 17:33N 37°56' E 023°41'4 3.5
2016-May-18 16:33N 37°53' E 023°38'1111.4
2016-May-18 15:33N 37°47' E 023°27'2 0.9
2016-May-18 13:18N 37°45' E 023°26'911.3
2016-May-18 12:32N 37°36' E 023°26'6 6.4
2016-May-18 11:33N 37°30' E 023°27'6 5.7
2016-May-18 10:32N 37°25' E 023°32'5 5.3
2016-May-18 09:33N 37°21' E 023°28'2 1.6
2016-May-18 08:30N 37°23' E 023°29'1111.4
2016-May-18 07:31N 37°33' E 023°33'1211.9
2016-May-18 06:33N 37°45' E 023°34'1211.6
2016-May-18 05:33N 37°55' E 023°40'1 1.1
2016-May-18 04:33N 37°56' E 023°41'0 0.0
2016-May-18 03:33N 37°56' E 023°41'0 0.0
2016-May-17 20:33N 37°56' E 023°41'0 0.0
2016-May-17 19:33N 37°56' E 023°41'0 0.0
2016-May-17 18:33N 37°56' E 023°41'0 0.0
2016-May-17 17:33N 37°56' E 023°41'2 1.7
2016-May-17 16:33N 37°55' E 023°39'1211.9
2016-May-17 15:33N 37°48' E 023°28'3 2.8
2016-May-17 14:21N 37°45' E 023°26'0 0.0
2016-May-17 13:18N 37°45' E 023°26'811.0
2016-May-17 12:32N 37°36' E 023°25'7 6.7
2016-May-17 11:33N 37°30' E 023°27'6 5.2
2016-May-17 10:22N 37°25' E 023°31'4 5.2
2016-May-17 09:32N 37°21' E 023°28'0 0.0
2016-May-17 08:33N 37°21' E 023°28'1110.9
2016-May-17 07:34N 37°31' E 023°32'1211.8
2016-May-17 06:33N 37°43' E 023°33'1111.4
2016-May-17 05:33N 37°54' E 023°39'3 3.1
2016-May-17 04:33N 37°56' E 023°41'0 0.0
2016-May-17 03:33N 37°56' E 023°41'0 0.0
2016-May-16 19:34N 37°56' E 023°41'0 0.0
2016-May-16 18:33N 37°56' E 023°41'0 0.0
2016-May-16 17:34N 37°56' E 023°41'2 1.5
2016-May-16 16:33N 37°55' E 023°39'1211.8
2016-May-16 15:33N 37°48' E 023°28'4 1.8
2016-May-16 13:27N 37°45' E 023°26'  

Dump ship's entire track history